This is the latest recevied weather packets stored in our database for station/object N6RDS-8. If no packets are shown the sender has not sent any weather packets the latest 1 day(s).
| Time | Temp. | Humidity | Pressure | Rain* | Wind** | Luminosity | Snow |
|---|---|---|---|---|---|---|---|
| 1777974380 | 12.78° C | 90% | 1017.8 hPa | 0 mm | 1.34 m/s, 21° | 0 W/m² | - |
| 1777974076 | 12.78° C | 90% | 1017.8 hPa | 0 mm | 0.45 m/s, 98° | 0 W/m² | - |
| 1777973772 | 12.78° C | 89% | 1017.9 hPa | 0 mm | 1.34 m/s, 50° | 0 W/m² | - |
| 1777973469 | 12.78° C | 89% | 1018 hPa | 0 mm | 0.89 m/s, 12° | 0 W/m² | - |
| 1777973167 | 13.33° C | 88% | 1018.2 hPa | 0 mm | 0 m/s | 0 W/m² | - |
| 1777972866 | 13.33° C | 87% | 1018 hPa | 0 mm | 0.89 m/s, 47° | 0 W/m² | - |
| 1777972562 | 13.33° C | 86% | 1018 hPa | 0 mm | 0.89 m/s, 314° | 0 W/m² | - |
| 1777972260 | 13.33° C | 85% | 1018.1 hPa | 0 mm | 0.45 m/s, 93° | 0 W/m² | - |
| 1777971958 | 13.89° C | 84% | 1018.1 hPa | 0 mm | 1.34 m/s, 75° | 0 W/m² | - |
| 1777971655 | 13.89° C | 82% | 1018.2 hPa | 0 mm | 0.89 m/s, 102° | 0 W/m² | - |
| 1777971353 | 13.89° C | 80% | 1018.2 hPa | 0 mm | 0.45 m/s, 90° | 0 W/m² | - |
| 1777971051 | 14.44° C | 77% | 1018.4 hPa | 0 mm | 0.89 m/s, 16° | 0 W/m² | - |
| 1777970749 | 14.44° C | 74% | 1018.1 hPa | 0 mm | 0.89 m/s, 343° | 0 W/m² | - |
| 1777970447 | 15° C | 72% | 1018.6 hPa | 0 mm | 0.89 m/s, 71° | 0 W/m² | - |
| 1777970143 | 15° C | 71% | 1018.7 hPa | 0 mm | 1.34 m/s, 287° | 0 W/m² | - |
| 1777969840 | 15° C | 70% | 1018.7 hPa | 0 mm | 1.79 m/s, 19° | 0 W/m² | - |
| 1777969536 | 15.56° C | 69% | 1018.6 hPa | 0 mm | 0.89 m/s, 188° | 0 W/m² | - |
| 1777969233 | 15.56° C | 67% | 1018.5 hPa | 0 mm | 0.45 m/s, 319° | 0 W/m² | - |
| 1777968929 | 15.56° C | 66% | 1018.4 hPa | 0 mm | 0.45 m/s, 59° | 0 W/m² | - |
| 1777968626 | 15.56° C | 66% | 1018.4 hPa | 0 mm | 0.45 m/s, 67° | 0 W/m² | - |
| 1777968322 | 15.56° C | 65% | 1018.4 hPa | 0 mm | 0 m/s | 0 W/m² | - |
| 1777968019 | 15.56° C | 65% | 1018.5 hPa | 0 mm | 0.45 m/s, 76° | 0 W/m² | - |
| 1777967715 | 15.56° C | 65% | 1018.7 hPa | 0 mm | 0 m/s | 0 W/m² | - |
| 1777967412 | 15.56° C | 64% | 1018.5 hPa | 0 mm | 0 m/s | 0 W/m² | - |
| 1777967110 | 15.56° C | 64% | 1018.7 hPa | 0 mm | 0 m/s | 0 W/m² | - |
* Rain latest hour (hover to see other rain measurements)
** Current wind speed in m/s (hover to see current wind gust speed)